Time;durP1;ratioP1;P1;durP2;ratioP2;P2;SDS_P1;SDS_P2;PMS_P1;PMS_P2;Temp;Humidity;BMP_temperature;BMP_pressure;BME280_temperature;BME280_humidity;BME280_pressure;Samples;Min_cycle;Max_cycle;Signal;HPM_P1;HPM_P2
2023/01/05 00:01:30;;;;;;;127.13;52.08;;;;;;;5.80;100.00;98469.56;6217416;23;20066;-76
2023/01/05 00:03:56;;;;;;;118.80;46.55;;;;;;;5.69;100.00;98458.38;6217733;23;20004;-76
2023/01/05 00:06:22;;;;;;;116.40;50.92;;;;;;;5.65;100.00;98464.69;6242680;23;20004;-77
2023/01/05 00:08:47;;;;;;;151.18;60.38;;;;;;;5.57;100.00;98461.34;6217410;23;20004;-76
2023/01/05 00:22:31;;;;;;;143.00;56.60;;;;;;;5.50;100.00;98465.13;6242951;23;20087;-77
2023/01/05 00:24:58;;;;;;;143.80;59.08;;;;;;;5.59;100.00;98467.50;6243145;23;20403;-75
2023/01/05 00:27:24;;;;;;;141.48;59.13;;;;;;;5.54;100.00;98479.19;6217595;23;20014;-77
2023/01/05 00:29:50;;;;;;;136.60;58.30;;;;;;;5.56;100.00;98475.56;6216967;23;20032;-77
2023/01/05 00:32:15;;;;;;;147.05;60.67;;;;;;;5.50;100.00;98467.78;6217308;23;20567;-76
2023/01/05 00:34:41;;;;;;;144.63;60.95;;;;;;;5.45;100.00;98467.00;6217233;23;20348;-76
2023/01/05 00:37:06;;;;;;;138.75;58.83;;;;;;;5.46;100.00;98468.75;6242748;23;20451;-76
2023/01/05 00:39:33;;;;;;;161.73;65.55;;;;;;;5.44;100.00;98454.66;6242918;23;19996;-76
2023/01/05 00:41:58;;;;;;;158.77;67.65;;;;;;;5.47;100.00;98466.03;6217447;23;20329;-76
2023/01/05 00:44:24;;;;;;;129.00;55.15;;;;;;;5.41;100.00;98462.72;6242809;23;20008;-77
2023/01/05 00:46:49;;;;;;;129.02;54.40;;;;;;;5.41;100.00;98471.50;6217135;23;20400;-76
2023/01/05 00:49:15;;;;;;;125.57;53.50;;;;;;;5.37;100.00;98461.91;6217399;23;20433;-76
2023/01/05 00:51:41;;;;;;;119.50;51.10;;;;;;;5.23;100.00;98464.03;6217276;23;20329;-77
2023/01/05 00:54:07;;;;;;;113.13;46.25;;;;;;;5.16;100.00;98453.66;6242394;23;20079;-77
2023/01/05 00:56:32;;;;;;;106.85;44.33;;;;;;;5.08;100.00;98456.47;6242588;23;20360;-76
2023/01/05 00:58:58;;;;;;;106.20;42.88;;;;;;;5.14;100.00;98466.06;6242511;23;20000;-77
2023/01/05 01:01:23;;;;;;;100.72;40.90;;;;;;;5.02;100.00;98445.16;6217130;23;20219;-76
2023/01/05 01:03:52;;;;;;;101.47;41.17;;;;;;;5.05;100.00;98459.22;6217042;23;20008;-76
2023/01/05 01:06:18;;;;;;;104.25;42.58;;;;;;;4.99;100.00;98455.84;6243972;22;20046;-76
2023/01/05 01:08:43;;;;;;;107.13;42.70;;;;;;;4.95;100.00;98452.44;6217002;23;20004;-76
2023/01/05 01:11:09;;;;;;;105.43;43.10;;;;;;;4.90;100.00;98449.00;6242380;23;20065;-76
2023/01/05 01:13:37;;;;;;;95.30;41.60;;;;;;;4.86;100.00;98445.53;6242338;23;20421;-77
2023/01/05 01:16:13;;;;;;;98.93;42.83;;;;;;;4.88;100.00;98453.47;6217168;23;20011;-76
2023/01/05 01:18:39;;;;;;;115.70;46.33;;;;;;;4.85;100.00;98446.47;6216955;23;20061;-77
2023/01/05 01:21:05;;;;;;;122.70;47.15;;;;;;;4.74;100.00;98445.84;6242236;23;20008;-77
2023/01/05 01:23:32;;;;;;;125.40;50.47;;;;;;;4.55;100.00;98426.03;6216990;23;20004;-76
2023/01/05 01:26:03;;;;;;;107.18;41.95;;;;;;;4.56;100.00;98430.41;6217040;23;20011;-76
2023/01/05 01:28:28;;;;;;;107.68;44.67;;;;;;;4.63;100.00;98447.03;6217001;23;20008;-76
2023/01/05 01:30:55;;;;;;;127.03;51.17;;;;;;;4.56;100.00;98445.41;6216810;23;20102;-77
2023/01/05 01:33:21;;;;;;;132.93;51.45;;;;;;;4.49;100.00;98436.75;6242402;23;20011;-77
2023/01/05 01:35:47;;;;;;;134.98;51.15;;;;;;;4.50;100.00;98443.78;6216939;23;20004;-76
2023/01/05 01:38:12;;;;;;;138.20;53.78;;;;;;;4.56;100.00;98446.28;6242096;23;20003;-76
2023/01/05 01:40:43;;;;;;;137.30;53.58;;;;;;;4.56;100.00;98441.00;6216781;23;20004;-76
2023/01/05 01:43:14;;;;;;;129.60;50.08;;;;;;;4.72;100.00;98454.75;6216855;23;20342;-77
2023/01/05 01:45:40;;;;;;;120.20;45.85;;;;;;;4.77;100.00;98443.13;6216892;23;20436;-77
2023/01/05 01:48:06;;;;;;;110.07;43.97;;;;;;;4.72;100.00;98433.56;6241628;23;20099;-76
2023/01/05 01:50:35;;;;;;;108.53;43.00;;;;;;;4.71;100.00;98432.69;6217104;23;20004;-76
2023/01/05 01:53:06;;;;;;;97.55;39.83;;;;;;;4.77;100.00;98424.56;6216756;23;20087;-77
2023/01/05 01:55:32;;;;;;;89.45;37.03;;;;;;;4.80;100.00;98413.91;6216895;23;20349;-76
2023/01/05 01:57:59;;;;;;;80.18;33.97;;;;;;;4.73;100.00;98396.44;6216822;23;20091;-77
2023/01/05 02:00:25;;;;;;;76.05;30.20;;;;;;;4.69;100.00;98383.28;6217835;23;20401;-77
2023/01/05 02:02:53;;;;;;;74.35;33.40;;;;;;;4.72;100.00;98384.09;6218680;23;20035;-76
2023/01/05 02:05:21;;;;;;;85.05;33.80;;;;;;;4.70;100.00;98375.31;6218666;23;20083;-76
2023/01/05 02:07:47;;;;;;;83.53;33.80;;;;;;;4.72;100.00;98388.50;6218645;23;20023;-77
2023/01/05 02:10:15;;;;;;;98.72;34.72;;;;;;;4.76;100.00;98382.22;6218831;23;20070;-77
2023/01/05 02:13:22;;;;;;;94.35;36.65;;;;;;;4.76;100.00;98376.94;6218737;23;20004;-76
2023/01/05 02:15:54;;;;;;;111.53;36.25;;;;;;;4.82;100.00;98385.59;6218630;23;20043;-77
2023/01/05 02:19:12;;;;;;;165.40;31.42;;;;;;;4.74;100.00;98381.38;6245439;23;20000;-78
2023/01/05 02:21:52;;;;;;;202.73;39.60;;;;;;;4.61;100.00;98386.16;6098439;22;20013;-77
2023/01/05 02:24:32;;;;;;;160.63;38.78;;;;;;;4.55;100.00;98386.31;6243949;23;20035;-77
2023/01/05 02:27:04;;;;;;;127.88;37.47;;;;;;;4.63;100.00;98397.56;6244019;23;20004;-77
2023/01/05 02:29:35;;;;;;;203.88;41.90;;;;;;;4.59;100.00;98392.38;6243884;23;20011;-77
2023/01/05 02:32:11;;;;;;;208.77;39.60;;;;;;;4.47;100.00;98380.28;6218676;23;20011;-77
2023/01/05 02:35:16;;;;;;;211.75;35.17;;;;;;;4.31;100.00;98381.56;6243719;23;20011;-77
2023/01/05 02:37:56;;;;;;;146.68;32.53;;;;;;;4.29;100.00;98373.66;6183392;23;20014;-76
2023/01/05 02:40:33;;;;;;;171.52;36.53;;;;;;;4.15;100.00;98359.88;6243921;23;20356;-77
2023/01/05 02:43:00;;;;;;;179.52;34.72;;;;;;;4.25;100.00;98369.34;6243967;23;20004;-77
2023/01/05 02:45:25;;;;;;;232.18;38.88;;;;;;;4.21;100.00;98358.88;6218331;23;20568;-77
2023/01/05 02:47:51;;;;;;;218.02;38.55;;;;;;;4.24;100.00;98364.09;6218009;23;20048;-76
2023/01/05 02:50:19;;;;;;;178.38;36.42;;;;;;;4.32;100.00;98367.44;6243581;23;20403;-75
2023/01/05 02:52:54;;;;;;;205.73;42.35;;;;;;;4.26;100.00;98363.16;6243966;23;20329;-75
2023/01/05 02:55:25;;;;;;;181.23;39.63;;;;;;;4.17;100.00;98365.16;6243507;23;20066;-76
2023/01/05 02:58:01;;;;;;;206.93;40.78;;;;;;;4.10;100.00;98342.34;6243542;23;20000;-76
2023/01/05 03:00:40;;;;;;;185.88;42.22;;;;;;;4.17;100.00;98355.44;6243575;23;20405;-76
2023/01/05 03:03:28;;;;;;;141.88;41.63;;;;;;;4.21;100.00;98343.88;6218207;23;20079;-75
2023/01/05 03:05:59;;;;;;;247.55;47.53;;;;;;;4.21;100.00;98345.66;6218067;23;20448;-76
2023/01/05 03:08:27;;;;;;;179.60;44.97;;;;;;;4.23;100.00;98343.81;6217748;23;20012;-76
2023/01/05 03:13:57;;;;;;;199.27;49.05;;;;;;;3.73;100.00;98329.97;6243769;23;20011;-76
2023/01/05 03:16:31;;;;;;;142.07;45.63;;;;;;;3.64;100.00;98332.84;6218018;23;20105;-78
2023/01/05 03:35:33;;;;;;;152.27;50.30;;;;;;;3.44;100.00;98300.69;6243420;23;20014;-77
2023/01/05 03:38:12;;;;;;;209.93;57.97;;;;;;;3.43;100.00;98296.28;6243381;23;20384;-77
2023/01/05 03:40:38;;;;;;;145.32;51.83;;;;;;;3.56;100.00;98308.34;6243012;23;20019;-76
2023/01/05 03:43:04;;;;;;;158.52;44.40;;;;;;;3.60;100.00;98306.50;6218124;23;19996;-77
2023/01/05 03:45:45;;;;;;;154.48;47.17;;;;;;;3.58;100.00;98303.88;6243174;23;20004;-76
2023/01/05 03:48:11;;;;;;;139.68;41.83;;;;;;;3.57;100.00;98296.84;6242926;23;20122;-76
2023/01/05 03:50:37;;;;;;;133.32;41.53;;;;;;;3.61;100.00;98308.22;6217721;23;20464;-76
2023/01/05 03:53:03;;;;;;;136.68;43.92;;;;;;;3.60;100.00;98307.34;6242845;23;19996;-77
2023/01/05 03:55:28;;;;;;;178.98;46.72;;;;;;;3.61;100.00;98311.75;6242607;23;20007;-76
2023/01/05 03:57:54;;;;;;;130.15;44.38;;;;;;;3.65;100.00;98304.59;6217660;23;20087;-77
2023/01/05 04:00:20;;;;;;;146.23;49.92;;;;;;;3.63;100.00;98301.97;6216938;23;20464;-76
2023/01/05 04:02:46;;;;;;;131.07;45.30;;;;;;;3.74;100.00;98289.41;6217486;23;20012;-76
2023/01/05 04:05:11;;;;;;;132.02;43.60;;;;;;;3.60;100.00;98280.88;6217627;23;20325;-78
2023/01/05 04:07:37;;;;;;;159.60;42.75;;;;;;;3.67;100.00;98286.91;6217782;23;20008;-77
2023/01/05 04:10:03;;;;;;;125.05;39.42;;;;;;;3.64;100.00;98284.34;6217544;23;20008;-77
2023/01/05 04:12:29;;;;;;;176.85;40.08;;;;;;;3.61;100.00;98284.41;6217681;23;20510;-75
2023/01/05 04:14:54;;;;;;;131.98;38.63;;;;;;;3.61;100.00;98276.47;6217422;23;20008;-76
2023/01/05 04:17:20;;;;;;;150.73;40.47;;;;;;;3.53;100.00;98273.16;6242960;23;20061;-76
2023/01/05 04:19:45;;;;;;;250.13;45.92;;;;;;;3.36;100.00;98265.56;6242783;23;19996;-76
2023/01/05 04:22:11;;;;;;;163.27;43.90;;;;;;;3.37;100.00;98277.03;6217322;23;20004;-77
2023/01/05 04:24:36;;;;;;;127.25;39.40;;;;;;;3.41;100.00;98266.38;6217612;23;20015;-77
2023/01/05 04:27:02;;;;;;;137.02;39.45;;;;;;;3.44;100.00;98284.81;6217218;23;20004;-76
2023/01/05 04:29:28;;;;;;;258.05;46.85;;;;;;;3.24;100.00;98282.59;6217358;23;20368;-77
2023/01/05 04:31:53;;;;;;;125.53;41.97;;;;;;;3.18;100.00;98279.19;6217246;23;20015;-77
2023/01/05 04:34:20;;;;;;;129.38;41.88;;;;;;;3.18;100.00;98284.47;6217428;23;20011;-77
2023/01/05 04:36:46;;;;;;;225.70;55.08;;;;;;;2.97;100.00;98287.56;6217545;23;20012;-77
2023/01/05 04:39:12;;;;;;;159.00;51.92;;;;;;;2.96;100.00;98289.31;6217825;23;19996;-73
2023/01/05 04:41:38;;;;;;;150.23;47.35;;;;;;;2.95;100.00;98305.22;6217232;23;20448;-74
2023/01/05 04:44:04;;;;;;;157.07;47.60;;;;;;;2.87;100.00;98313.28;6242073;23;20024;-73
2023/01/05 04:46:41;;;;;;;149.30;43.85;;;;;;;2.92;100.00;98318.50;6244080;22;20007;-73
2023/01/05 04:49:08;;;;;;;109.47;37.13;;;;;;;2.77;100.00;98321.44;6242495;23;20000;-77
2023/01/05 04:51:34;;;;;;;111.95;34.88;;;;;;;2.81;100.00;98323.97;6217123;23;20099;-73
2023/01/05 04:53:59;;;;;;;151.38;37.60;;;;;;;2.87;100.00;98323.84;6242346;23;20032;-74
2023/01/05 04:56:32;;;;;;;132.18;39.22;;;;;;;2.83;100.00;98310.75;6242629;23;20377;-74
2023/01/05 04:59:00;;;;;;;110.07;30.30;;;;;;;2.80;100.00;98314.28;6241930;23;20455;-73
2023/01/05 05:01:26;;;;;;;93.43;31.50;;;;;;;2.83;100.00;98321.31;6243730;22;20011;-74
2023/01/05 05:03:52;;;;;;;116.72;29.75;;;;;;;2.81;100.00;98323.97;6242182;23;20004;-73
2023/01/05 05:06:17;;;;;;;107.07;30.13;;;;;;;2.81;100.00;98315.16;6242346;23;20004;-73
2023/01/05 05:08:43;;;;;;;77.60;28.70;;;;;;;2.86;100.00;98314.19;6242192;23;20428;-73
2023/01/05 05:11:08;;;;;;;212.25;31.85;;;;;;;2.76;100.00;98315.28;6242090;23;20004;-73
2023/01/05 05:13:34;;;;;;;106.43;29.17;;;;;;;2.73;100.00;98294.19;6242216;23;20015;-73
2023/01/05 05:16:00;;;;;;;112.70;31.67;;;;;;;2.78;100.00;98300.25;6241974;23;20008;-73
2023/01/05 05:18:25;;;;;;;112.63;32.33;;;;;;;2.84;100.00;98301.91;6216857;23;19996;-73
2023/01/05 05:20:51;;;;;;;100.70;31.20;;;;;;;2.84;100.00;98309.84;6218319;23;20080;-79
2023/01/05 05:23:18;;;;;;;85.38;30.65;;;;;;;2.80;100.00;98313.44;6213751;23;20008;-79
2023/01/05 05:25:43;;;;;;;150.98;32.53;;;;;;;2.77;100.00;98311.72;6239410;23;20363;-81
2023/01/05 05:28:09;;;;;;;127.38;35.25;;;;;;;2.72;100.00;98297.72;6239701;23;20000;-76
2023/01/05 05:30:36;;;;;;;198.00;41.38;;;;;;;2.67;100.00;98296.97;6241599;23;20000;-76
2023/01/05 05:33:02;;;;;;;161.10;34.30;;;;;;;2.67;100.00;98302.25;6215684;23;20004;-76
2023/01/05 05:35:27;;;;;;;118.50;37.92;;;;;;;2.65;100.00;98296.97;6215305;23;20092;-77
2023/01/05 05:37:53;;;;;;;102.15;35.83;;;;;;;2.60;100.00;98287.41;6240845;23;20004;-75
2023/01/05 05:40:18;;;;;;;87.32;36.10;;;;;;;2.51;100.00;98277.00;6214821;23;20066;-76
2023/01/05 05:42:44;;;;;;;114.50;35.55;;;;;;;2.48;100.00;98267.38;6242688;22;20032;-76
2023/01/05 05:45:10;;;;;;;128.52;35.97;;;;;;;2.40;100.00;98258.72;6241831;23;20000;-76
2023/01/05 05:47:35;;;;;;;129.55;38.15;;;;;;;2.36;100.00;98245.63;6242249;23;20031;-76
2023/01/05 05:50:01;;;;;;;95.82;32.17;;;;;;;2.42;100.00;98249.03;6242351;23;20012;-75
2023/01/05 05:52:26;;;;;;;90.07;33.40;;;;;;;2.18;100.00;98221.28;6216883;23;20011;-76
2023/01/05 05:54:52;;;;;;;108.50;34.00;;;;;;;2.15;100.00;98234.53;6242404;23;20007;-76
2023/01/05 05:57:18;;;;;;;105.07;33.15;;;;;;;2.04;100.00;98222.44;6216904;23;20004;-76
2023/01/05 05:59:43;;;;;;;101.93;35.72;;;;;;;2.06;100.00;98231.22;6242319;23;20436;-77
2023/01/05 06:02:09;;;;;;;92.40;33.97;;;;;;;1.85;100.00;98221.00;6216984;23;20012;-76
2023/01/05 06:04:34;;;;;;;80.53;31.98;;;;;;;1.88;100.00;98220.94;6242271;23;20004;-76
2023/01/05 06:07:00;;;;;;;88.63;34.45;;;;;;;1.80;100.00;98222.84;6216803;23;20012;-76
2023/01/05 06:09:25;;;;;;;183.77;51.15;;;;;;;1.74;100.00;98220.31;6242057;23;20004;-75
2023/01/05 06:11:51;;;;;;;306.70;80.00;;;;;;;1.79;100.00;98227.25;6242679;23;20079;-77
2023/01/05 06:14:16;;;;;;;291.33;97.93;;;;;;;1.83;100.00;98238.63;6242380;23;20079;-77
2023/01/05 06:16:43;;;;;;;225.93;68.68;;;;;;;1.71;100.00;98229.16;6242746;23;20000;-76
2023/01/05 06:19:09;;;;;;;126.07;47.30;;;;;;;1.68;100.00;98238.88;6242253;23;20081;-75
2023/01/05 06:21:34;;;;;;;140.23;51.35;;;;;;;1.63;100.00;98237.16;6242940;23;20004;-76
2023/01/05 06:24:00;;;;;;;179.75;65.82;;;;;;;1.65;100.00;98239.81;6242358;23;20091;-76
2023/01/05 06:26:25;;;;;;;207.00;76.03;;;;;;;1.70;100.00;98229.16;6216872;23;20015;-76
2023/01/05 06:28:51;;;;;;;237.85;83.80;;;;;;;1.78;100.00;98245.75;6217091;23;20456;-76
2023/01/05 06:31:16;;;;;;;195.95;68.10;;;;;;;1.80;100.00;98233.41;6216866;23;20015;-76
2023/01/05 06:33:42;;;;;;;145.38;54.30;;;;;;;1.93;100.00;98256.06;6242323;23;20082;-76
2023/01/05 06:36:07;;;;;;;158.63;61.50;;;;;;;1.90;100.00;98251.69;6216926;23;20004;-76
2023/01/05 06:38:33;;;;;;;151.55;60.45;;;;;;;1.98;100.00;98256.84;6242403;23;20071;-76
2023/01/05 06:40:58;;;;;;;184.38;71.55;;;;;;;2.08;100.00;98255.78;6217096;23;20007;-76
2023/01/05 06:43:24;;;;;;;207.63;84.10;;;;;;;2.26;100.00;98271.31;6242096;23;20012;-76
2023/01/05 06:45:50;;;;;;;204.68;85.65;;;;;;;2.35;100.00;98265.84;6242994;23;20078;-75
2023/01/05 06:48:15;;;;;;;215.23;88.10;;;;;;;2.63;100.00;98263.56;6243809;23;20012;-75
2023/01/05 06:50:41;;;;;;;227.48;95.38;;;;;;;3.44;100.00;98282.16;6218622;23;20007;-75
2023/01/05 06:53:06;;;;;;;218.63;84.80;;;;;;;4.34;100.00;98286.16;6243808;23;20379;-75
2023/01/05 06:55:32;;;;;;;225.45;98.97;;;;;;;5.45;100.00;98298.09;6243566;23;20007;-76
2023/01/05 06:57:57;;;;;;;187.57;85.25;;;;;;;6.44;100.00;98234.72;6243385;23;20010;-75
2023/01/05 07:00:23;;;;;;;138.77;62.38;;;;;;;7.38;100.00;98169.22;6218283;23;20031;-76
2023/01/05 07:02:49;;;;;;;118.55;54.85;;;;;;;7.46;100.00;98089.91;6218592;23;20444;-76
2023/01/05 07:05:14;;;;;;;109.18;49.63;;;;;;;7.45;100.00;98053.56;6243945;23;20001;-75
2023/01/05 07:07:40;;;;;;;90.45;43.83;;;;;;;7.82;100.00;98029.78;6243854;23;19999;-76
2023/01/05 07:10:06;;;;;;;88.20;43.30;;;;;;;7.95;100.00;98003.50;6218328;23;20000;-76
2023/01/05 07:12:31;;;;;;;81.35;40.95;;;;;;;9.01;100.00;97988.75;6218260;23;20459;-77
2023/01/05 07:14:57;;;;;;;97.68;43.45;;;;;;;9.21;100.00;97959.28;6218434;23;20014;-76
2023/01/05 07:17:23;;;;;;;90.10;41.67;;;;;;;9.58;100.00;97941.41;6243608;23;20087;-76
2023/01/05 07:19:48;;;;;;;90.13;42.80;;;;;;;10.19;100.00;97923.88;6218338;23;20031;-76
2023/01/05 07:22:14;;;;;;;94.28;45.53;;;;;;;11.23;96.08;97906.31;6218373;23;20008;-77
2023/01/05 07:24:39;;;;;;;92.80;45.63;;;;;;;12.27;87.70;97882.97;6217942;23;20336;-77
2023/01/05 07:27:06;;;;;;;85.82;43.33;;;;;;;12.37;84.20;97837.63;6218286;23;20000;-77
2023/01/05 07:29:32;;;;;;;78.72;41.78;;;;;;;12.31;84.42;97822.78;6218022;23;20406;-78
2023/01/05 07:31:58;;;;;;;82.97;39.22;;;;;;;12.70;80.47;97789.81;6218042;23;20011;-76
2023/01/05 07:34:23;;;;;;;74.78;39.17;;;;;;;13.18;77.84;97784.81;6243267;23;20003;-76
2023/01/05 07:36:49;;;;;;;72.90;37.00;;;;;;;13.75;74.43;97771.84;6218034;23;20008;-76
2023/01/05 07:39:15;;;;;;;74.72;39.30;;;;;;;14.05;72.95;97748.09;6243199;23;20032;-77
2023/01/05 07:41:41;;;;;;;64.45;32.25;;;;;;;13.88;75.04;97743.94;6217997;23;20011;-76
2023/01/05 07:44:07;;;;;;;68.32;34.75;;;;;;;14.24;73.88;97743.09;6218378;23;20008;-76
2023/01/05 07:46:32;;;;;;;39.97;22.52;;;;;;;14.20;76.28;97733.53;6217332;23;20004;-77
2023/01/05 07:48:58;;;;;;;34.40;17.02;;;;;;;15.34;71.00;97730.25;6242974;23;20000;-77
2023/01/05 07:51:24;;;;;;;33.78;16.80;;;;;;;15.79;67.96;97723.94;6243424;23;20008;-77
2023/01/05 07:53:49;;;;;;;26.65;15.60;;;;;;;15.80;67.20;97717.56;6217567;23;20518;-76
2023/01/05 07:56:15;;;;;;;32.05;18.35;;;;;;;16.10;67.07;97727.72;6217546;23;20543;-76
2023/01/05 07:58:41;;;;;;;47.75;25.70;;;;;;;15.91;67.38;97716.69;6217159;23;20008;-76
2023/01/05 08:01:09;;;;;;;45.65;20.02;;;;;;;16.72;65.10;97720.72;6217987;23;20000;-78
2023/01/05 08:03:34;;;;;;;63.85;32.40;;;;;;;16.90;62.32;97701.22;6217681;23;20004;-77
2023/01/05 08:06:05;;;;;;;47.55;25.83;;;;;;;16.44;64.52;97705.06;6217852;23;20007;-77
2023/01/05 08:08:30;;;;;;;46.28;26.48;;;;;;;16.49;64.34;97683.09;6242673;23;20065;-77
2023/01/05 08:10:56;;;;;;;49.38;27.10;;;;;;;16.26;66.33;97685.00;6243167;23;20428;-77
2023/01/05 08:16:06;;;;;;;44.97;23.50;;;;;;;16.48;66.56;97730.84;6243486;23;20015;-76
2023/01/05 08:18:31;;;;;;;33.80;18.65;;;;;;;16.33;66.19;97721.31;6244451;22;20285;-77
2023/01/05 08:20:59;;;;;;;30.15;16.08;;;;;;;16.03;67.88;97724.66;6217663;23;20058;-76
2023/01/05 08:23:26;;;;;;;23.27;12.30;;;;;;;17.00;63.04;97718.38;6243063;23;20004;-78
2023/01/05 08:25:52;;;;;;;28.83;14.65;;;;;;;16.31;68.07;97736.75;6217889;23;20035;-78
2023/01/05 08:28:17;;;;;;;27.27;14.27;;;;;;;16.97;64.70;97730.31;6217366;23;20444;-78
2023/01/05 08:30:43;;;;;;;31.33;15.82;;;;;;;17.01;65.24;97745.25;6217316;23;20011;-76
2023/01/05 08:33:09;;;;;;;31.65;17.05;;;;;;;17.81;61.69;97746.41;6217799;23;20008;-75
2023/01/05 08:35:42;;;;;;;31.63;17.85;;;;;;;16.80;63.63;97720.06;6242913;23;20008;-78
2023/01/05 08:38:07;;;;;;;30.40;16.83;;;;;;;17.61;62.07;97747.31;6243119;23;20000;-76
2023/01/05 08:40:35;;;;;;;30.60;17.85;;;;;;;17.56;60.81;97719.81;6217318;23;20011;-76
2023/01/05 08:43:00;;;;;;;33.05;18.33;;;;;;;18.30;56.51;97704.97;6217209;23;20004;-78
2023/01/05 08:45:26;;;;;;;31.48;17.73;;;;;;;18.77;53.92;97694.38;6217214;23;20365;-77
2023/01/05 08:47:51;;;;;;;29.17;17.23;;;;;;;18.24;54.62;97683.03;6242154;23;20024;-77
2023/01/05 08:50:17;;;;;;;30.17;16.75;;;;;;;18.63;54.32;97702.94;6242579;23;20007;-77
2023/01/05 08:52:42;;;;;;;28.00;15.82;;;;;;;19.14;52.16;97697.22;6217164;23;20390;-78
2023/01/05 08:55:08;;;;;;;26.45;15.80;;;;;;;19.29;50.85;97676.78;6217445;23;20082;-78
2023/01/05 08:57:35;;;;;;;28.08;15.75;;;;;;;19.05;51.58;97671.81;6192541;23;20476;-77
2023/01/05 09:00:01;;;;;;;25.60;15.30;;;;;;;19.47;49.96;97659.63;6242533;23;20000;-77
2023/01/05 09:02:27;;;;;;;28.05;15.48;;;;;;;20.45;48.56;97669.94;6242610;23;20444;-77
2023/01/05 09:04:53;;;;;;;29.98;16.45;;;;;;;21.12;46.37;97646.78;6216788;23;20023;-78
2023/01/05 09:07:19;;;;;;;29.17;16.92;;;;;;;21.72;45.60;97624.03;6217217;23;20411;-78
2023/01/05 09:09:44;;;;;;;30.48;16.67;;;;;;;21.66;43.69;97592.00;6216443;23;20004;-77
2023/01/05 09:12:10;;;;;;;39.90;18.05;;;;;;;21.10;46.63;97627.06;6217164;23;20014;-76
2023/01/05 09:14:35;;;;;;;28.92;15.90;;;;;;;21.35;45.26;97609.91;6216825;23;19996;-77
2023/01/05 09:17:01;;;;;;;34.55;16.08;;;;;;;21.68;43.97;97600.91;6216747;23;20007;-76
2023/01/05 09:19:26;;;;;;;25.33;15.85;;;;;;;21.65;44.27;97601.22;6242403;23;20004;-77
2023/01/05 09:21:52;;;;;;;24.88;14.70;;;;;;;21.75;44.07;97588.31;6241846;23;20082;-76
2023/01/05 09:24:18;;;;;;;31.92;15.45;;;;;;;22.34;42.75;97597.41;6217130;23;20004;-77
2023/01/05 09:26:44;;;;;;;33.28;17.65;;;;;;;23.61;39.78;97591.28;6242073;23;20062;-77
2023/01/05 09:29:11;;;;;;;39.55;17.67;;;;;;;23.06;41.48;97594.78;6242403;23;20776;-76
2023/01/05 09:31:36;;;;;;;30.85;17.92;;;;;;;22.62;39.71;97564.22;6242122;23;20015;-77
2023/01/05 09:34:03;;;;;;;30.60;15.55;;;;;;;21.41;41.86;97561.09;6242098;23;20428;-75
2023/01/05 09:36:29;;;;;;;36.00;19.38;;;;;;;20.62;43.83;97552.19;6242211;23;20377;-77
2023/01/05 09:38:57;;;;;;;41.97;22.88;;;;;;;20.55;45.14;97570.13;6216874;23;20038;-77
2023/01/05 09:41:29;;;;;;;37.63;19.77;;;;;;;20.17;44.67;97562.28;6243361;22;20011;-77
2023/01/05 09:43:56;;;;;;;;;;;;;;;21.05;43.17;97576.66;6217769;23;20007;-76
2023/01/05 09:46:42;;;;;;;15.07;7.85;;;;;;;21.67;40.29;97552.88;6216459;23;19979;-77
2023/01/05 09:49:13;;;;;;;19.98;8.02;;;;;;;21.35;40.82;97539.16;6216667;23;20357;-76
2023/01/05 09:51:38;;;;;;;15.02;7.22;;;;;;;20.63;41.33;97525.88;6216812;23;20096;-76
2023/01/05 09:54:04;;;;;;;12.57;7.40;;;;;;;21.41;40.58;97543.94;6216865;23;20051;-76
2023/01/05 09:56:32;;;;;;;10.27;6.85;;;;;;;21.34;40.33;97526.53;6242145;23;20005;-76
2023/01/05 09:59:33;;;;;;;11.32;6.05;;;;;;;21.93;38.86;97517.44;6216728;23;20011;-76
2023/01/05 10:02:00;;;;;;;9.63;6.13;;;;;;;22.17;38.34;97503.88;6216611;23;20495;-77
2023/01/05 10:04:29;;;;;;;15.32;7.65;;;;;;;21.71;38.53;97485.34;6216634;23;20016;-78
2023/01/05 10:07:05;;;;;;;17.80;6.07;;;;;;;21.46;39.17;97489.84;6216873;23;20004;-77
2023/01/05 10:09:34;;;;;;;14.43;6.20;;;;;;;21.51;38.79;97485.63;6241687;23;20444;-77
2023/01/05 10:15:06;;;;;;;25.27;7.07;;;;;;;21.20;39.57;97475.44;6242028;23;20053;-77
2023/01/05 10:17:34;;;;;;;11.27;6.53;;;;;;;21.15;39.77;97467.78;6241823;23;20389;-77
2023/01/05 10:20:00;;;;;;;12.88;6.35;;;;;;;21.53;39.79;97490.91;6216534;23;20405;-79
2023/01/05 10:23:20;;;;;;;9.82;5.90;;;;;;;22.38;37.59;97487.00;6218225;23;20087;-79
2023/01/05 10:25:54;;;;;;;13.93;7.63;;;;;;;23.02;37.45;97486.13;6152528;23;20013;-77
2023/01/05 10:29:09;;;;;;;10.45;6.22;;;;;;;23.26;36.91;97487.97;6224801;23;20487;-77
2023/01/05 10:31:46;;;;;;;9.25;6.03;;;;;;;23.33;36.31;97484.34;6236218;23;20012;-77
2023/01/05 10:34:15;;;;;;;10.88;5.07;;;;;;;22.83;36.27;97470.97;6243855;23;19997;-77
2023/01/05 10:37:06;;;;;;;7.50;5.22;;;;;;;21.45;38.67;97447.31;6243418;23;20008;-77
2023/01/05 10:40:02;;;;;;;9.43;5.55;;;;;;;21.67;38.30;97454.88;6243774;23;20007;-78
2023/01/05 10:42:44;;;;;;;10.90;5.90;;;;;;;22.37;37.10;97455.31;6218401;23;20337;-78
2023/01/05 10:45:12;;;;;;;12.93;5.65;;;;;;;22.77;36.79;97463.50;6243638;23;20463;-78
2023/01/05 10:47:38;;;;;;;12.02;5.28;;;;;;;22.82;36.57;97444.75;6243160;23;20039;-76
2023/01/05 10:50:25;;;;;;;10.75;6.55;;;;;;;23.88;35.49;97464.28;6218032;23;20379;-76
2023/01/05 10:52:52;;;;;;;11.82;6.25;;;;;;;24.37;34.52;97464.84;6243656;23;20396;-77
2023/01/05 10:55:18;;;;;;;14.38;6.32;;;;;;;24.61;34.28;97456.44;6218064;23;20042;-78
2023/01/05 10:57:45;;;;;;;12.75;5.97;;;;;;;25.08;33.08;97446.06;6217859;23;20007;-78
2023/01/05 11:00:16;;;;;;;9.57;5.45;;;;;;;24.94;32.72;97427.75;6217926;23;20035;-78
2023/01/05 11:02:50;;;;;;;10.90;5.50;;;;;;;25.60;32.00;97437.75;6217823;23;20008;-78
2023/01/05 11:05:34;;;;;;;9.05;5.13;;;;;;;25.93;31.51;97437.31;6243557;23;20407;-78
2023/01/05 11:08:13;;;;;;;8.15;5.55;;;;;;;25.04;32.43;97420.09;6244773;23;20061;-77
2023/01/05 11:10:47;;;;;;;9.55;5.07;;;;;;;26.19;30.64;97424.75;6243039;23;20004;-77
2023/01/05 11:13:15;;;;;;;8.38;5.55;;;;;;;26.50;30.52;97418.91;6217891;23;20008;-78
2023/01/05 11:15:52;;;;;;;12.80;5.63;;;;;;;25.84;31.42;97401.78;6243070;23;20012;-78
2023/01/05 11:18:31;;;;;;;14.18;5.47;;;;;;;25.57;31.20;97388.81;6217782;23;20004;-77
2023/01/05 11:21:07;;;;;;;10.57;5.18;;;;;;;26.09;30.98;97410.47;6243318;23;20016;-78
2023/01/05 11:23:46;;;;;;;9.50;5.72;;;;;;;25.30;31.91;97387.63;6217814;23;20157;-78
2023/01/05 11:26:18;;;;;;;10.15;5.95;;;;;;;25.18;31.72;97380.94;6242991;23;20004;-78
2023/01/05 11:29:09;;;;;;;9.23;5.93;;;;;;;24.86;32.01;97378.56;6242718;23;20007;-78
2023/01/05 11:31:44;;;;;;;8.85;5.10;;;;;;;23.69;33.14;97368.09;6244460;22;20004;-75
2023/01/05 11:34:28;;;;;;;11.18;5.75;;;;;;;23.28;34.25;97372.09;6242848;23;20011;-77
2023/01/05 11:36:54;;;;;;;6.85;4.50;;;;;;;22.78;33.98;97347.06;6242824;23;20448;-76
2023/01/05 11:39:38;;;;;;;9.57;4.75;;;;;;;22.34;34.69;97336.56;6243026;23;20353;-76
2023/01/05 11:42:17;;;;;;;10.38;4.68;;;;;;;21.37;35.27;97330.25;6217455;23;20015;-76
2023/01/05 11:44:47;;;;;;;24.13;11.25;;;;;;;21.29;36.42;97343.84;6242795;23;20047;-77
2023/01/05 11:47:57;;;;;;;9.77;5.38;;;;;;;21.63;35.75;97347.28;6217444;23;20369;-77
2023/01/05 11:50:25;;;;;;;11.77;4.70;;;;;;;22.01;34.93;97345.81;6237004;23;20011;-76
2023/01/05 11:52:55;;;;;;;7.05;4.35;;;;;;;20.91;36.38;97318.03;6217608;23;20008;-77
2023/01/05 11:55:41;;;;;;;8.38;4.25;;;;;;;20.93;36.55;97332.31;6217734;23;20012;-77
2023/01/05 11:58:16;;;;;;;11.88;4.55;;;;;;;21.41;36.39;97345.25;6242438;23;20586;-77
2023/01/05 12:00:51;;;;;;;6.53;4.05;;;;;;;21.11;36.51;97343.09;6242929;23;20083;-75